Teddy Meyer — WDF9635 — position and weather

sailwx.info

Track history (hours):
 
Tides and Currents Weather Stations Pressure Air Temp Water Temp Dewpoint Dewpoint Depression Visibility Wind Speed Wind Dir Waves Ship Positions

Teddy Meyer

Owner: LeBeouf Bros. Towing, LLC, Houma, LA. More information available from US FCC via Universal Licensing System and Coast Guard Vessel Documentation Center.

Last reported at 2015-May-23 09:33 UTC. Time now 2015-May-23 10:20 UTC.
Position N 30°33' W 091°15'.

; draft 3 m.

MMSI: 367507220.

Date/timePositionNaut miles runAvg speedWind from/ knotsBaromVisibWave heightAir tempDewpointWater temp
2015-May-23 09:33N 30°33' W 091°15'3 2.9
2015-May-23 08:33N 30°30' W 091°16'3 2.9
2015-May-23 07:33N 30°31' W 091°12'5 5.2
2015-May-23 06:33N 30°26' W 091°12'2 1.6
2015-May-23 05:33N 30°25' W 091°12'0 0.0
2015-May-23 04:33N 30°25' W 091°12'1 1.0
2015-May-23 03:33N 30°26' W 091°12'0 0.5
2015-May-23 02:33N 30°26' W 091°13'1 0.5
2015-May-23 01:33N 30°26' W 091°13'1 0.8
2015-May-23 00:33N 30°27' W 091°14'3 3.0
2015-May-22 23:32N 30°25' W 091°17'  
2015-May-16 17:33N 29°27' W 094°51'8 8.2
2015-May-16 16:33N 29°34' W 094°55'8 8.1
2015-May-16 15:33N 29°41' W 094°59'7 7.0
2015-May-16 14:33N 29°45' W 095°05'6 5.6
2015-May-16 13:33N 29°45' W 095°12'0 0.0
2015-May-16 12:33N 29°45' W 095°12'0 0.0
2015-May-16 11:33N 29°45' W 095°12'0 0.0
2015-May-16 10:33N 29°45' W 095°12'0 0.0
2015-May-16 09:33N 29°45' W 095°12'0 0.0
2015-May-16 08:33N 29°45' W 095°12'0 0.0
2015-May-16 07:33N 29°45' W 095°12'0 0.0
2015-May-16 06:33N 29°45' W 095°12'0 0.0
2015-May-16 05:33N 29°45' W 095°12'0 0.0
2015-May-16 04:33N 29°45' W 095°12'0 0.0
2015-May-16 03:33N 29°45' W 095°12'0 0.0
2015-May-16 02:33N 29°45' W 095°12'0 0.0
2015-May-16 01:33N 29°45' W 095°12'0 0.0
2015-May-16 00:33N 29°45' W 095°12'0 0.0
2015-May-15 23:33N 29°45' W 095°12'0 0.0
2015-May-15 22:33N 29°45' W 095°12'0 0.0
2015-May-15 21:33N 29°45' W 095°12'0 0.0
2015-May-15 20:33N 29°45' W 095°12'0 0.0
2015-May-15 19:33N 29°45' W 095°12'0 0.0
2015-May-15 18:33N 29°45' W 095°12'0 0.0
2015-May-15 17:33N 29°45' W 095°12'0 0.0
2015-May-15 16:33N 29°45' W 095°12'0 0.0
2015-May-15 15:33N 29°45' W 095°12'4 4.2
2015-May-15 14:33N 29°44' W 095°07'3 2.8
2015-May-15 13:33N 29°46' W 095°05'1 0.7
2015-May-15 12:27N 29°47' W 095°04'1 0.7
2015-May-15 11:33N 29°47' W 095°04'0 0.0
2015-May-15 10:33N 29°47' W 095°04'0 0.0
2015-May-15 09:33N 29°47' W 095°04'0 0.0
2015-May-15 08:32N 29°47' W 095°04'0 0.0
2015-May-15 07:32N 29°47' W 095°04'0 0.0
2015-May-15 06:14N 29°47' W 095°04'0 0.0
2015-May-15 05:33N 29°47' W 095°04'  
Track history (hours):
 
Tides and Currents Weather Stations Pressure Air Temp Water Temp Dewpoint Dewpoint Depression Visibility Wind Speed Wind Dir Waves Ship Positions

Teddy Meyer

Owner: LeBeouf Bros. Towing, LLC, Houma, LA. More information available from US FCC via Universal Licensing System and Coast Guard Vessel Documentation Center.

Last reported at 2015-May-23 09:33 UTC. Time now 2015-May-23 10:20 UTC.
Position N 30°33' W 091°15'.

; draft 3 m.

MMSI: 367507220.

Date/timePositionNaut miles runAvg speedWind from/ knotsBaromVisibWave heightAir tempDewpointWater temp
2015-May-23 09:33N 30°33' W 091°15'3 2.9
2015-May-23 08:33N 30°30' W 091°16'3 2.9
2015-May-23 07:33N 30°31' W 091°12'5 5.2
2015-May-23 06:33N 30°26' W 091°12'2 1.6
2015-May-23 05:33N 30°25' W 091°12'0 0.0
2015-May-23 04:33N 30°25' W 091°12'1 1.0
2015-May-23 03:33N 30°26' W 091°12'0 0.5
2015-May-23 02:33N 30°26' W 091°13'1 0.5
2015-May-23 01:33N 30°26' W 091°13'1 0.8
2015-May-23 00:33N 30°27' W 091°14'3 3.0
2015-May-22 23:32N 30°25' W 091°17'  
2015-May-16 17:33N 29°27' W 094°51'8 8.2
2015-May-16 16:33N 29°34' W 094°55'8 8.1
2015-May-16 15:33N 29°41' W 094°59'7 7.0
2015-May-16 14:33N 29°45' W 095°05'6 5.6
2015-May-16 13:33N 29°45' W 095°12'0 0.0
2015-May-16 12:33N 29°45' W 095°12'0 0.0
2015-May-16 11:33N 29°45' W 095°12'0 0.0
2015-May-16 10:33N 29°45' W 095°12'0 0.0
2015-May-16 09:33N 29°45' W 095°12'0 0.0
2015-May-16 08:33N 29°45' W 095°12'0 0.0
2015-May-16 07:33N 29°45' W 095°12'0 0.0
2015-May-16 06:33N 29°45' W 095°12'0 0.0
2015-May-16 05:33N 29°45' W 095°12'0 0.0
2015-May-16 04:33N 29°45' W 095°12'0 0.0
2015-May-16 03:33N 29°45' W 095°12'0 0.0
2015-May-16 02:33N 29°45' W 095°12'0 0.0
2015-May-16 01:33N 29°45' W 095°12'0 0.0
2015-May-16 00:33N 29°45' W 095°12'0 0.0
2015-May-15 23:33N 29°45' W 095°12'0 0.0
2015-May-15 22:33N 29°45' W 095°12'0 0.0
2015-May-15 21:33N 29°45' W 095°12'0 0.0
2015-May-15 20:33N 29°45' W 095°12'0 0.0
2015-May-15 19:33N 29°45' W 095°12'0 0.0
2015-May-15 18:33N 29°45' W 095°12'0 0.0
2015-May-15 17:33N 29°45' W 095°12'0 0.0
2015-May-15 16:33N 29°45' W 095°12'0 0.0
2015-May-15 15:33N 29°45' W 095°12'4 4.2
2015-May-15 14:33N 29°44' W 095°07'3 2.8
2015-May-15 13:33N 29°46' W 095°05'1 0.7
2015-May-15 12:27N 29°47' W 095°04'1 0.7
2015-May-15 11:33N 29°47' W 095°04'0 0.0
2015-May-15 10:33N 29°47' W 095°04'0 0.0
2015-May-15 09:33N 29°47' W 095°04'0 0.0
2015-May-15 08:32N 29°47' W 095°04'0 0.0
2015-May-15 07:32N 29°47' W 095°04'0 0.0
2015-May-15 06:14N 29°47' W 095°04'0 0.0
2015-May-15 05:33N 29°47' W 095°04'  

Dump ship's entire track history